sensor_id;sensor_type;location;lat;lon;timestamp;P1;durP1;ratioP1;P2;durP2;ratioP2
61356;SDS011;47227;46.752;23.576;2022-11-03T00:02:07;34.10;;;15.00;;
61356;SDS011;47227;46.752;23.576;2022-11-03T00:04:33;30.70;;;14.40;;
61356;SDS011;47227;46.752;23.576;2022-11-03T00:07:00;29.60;;;13.80;;
61356;SDS011;47227;46.752;23.576;2022-11-03T00:09:27;35.50;;;14.60;;
61356;SDS011;47227;46.752;23.576;2022-11-03T00:11:53;28.60;;;12.40;;
61356;SDS011;47227;46.752;23.576;2022-11-03T00:14:20;27.90;;;12.80;;
61356;SDS011;47227;46.752;23.576;2022-11-03T00:16:46;28.20;;;13.10;;
61356;SDS011;47227;46.752;23.576;2022-11-03T00:19:14;25.30;;;12.80;;
61356;SDS011;47227;46.752;23.576;2022-11-03T00:21:42;28.00;;;12.30;;
61356;SDS011;47227;46.752;23.576;2022-11-03T00:24:09;24.90;;;12.90;;
61356;SDS011;47227;46.752;23.576;2022-11-03T00:26:36;23.50;;;12.00;;
61356;SDS011;47227;46.752;23.576;2022-11-03T00:29:09;27.50;;;13.20;;
61356;SDS011;47227;46.752;23.576;2022-11-03T00:31:38;28.20;;;13.60;;
61356;SDS011;47227;46.752;23.576;2022-11-03T00:34:09;31.00;;;14.20;;
61356;SDS011;47227;46.752;23.576;2022-11-03T00:36:37;28.30;;;14.10;;
61356;SDS011;47227;46.752;23.576;2022-11-03T00:39:07;37.80;;;15.50;;
61356;SDS011;47227;46.752;23.576;2022-11-03T00:41:34;29.70;;;13.80;;
61356;SDS011;47227;46.752;23.576;2022-11-03T00:44:01;31.30;;;14.20;;
61356;SDS011;47227;46.752;23.576;2022-11-03T00:46:28;29.50;;;14.10;;
61356;SDS011;47227;46.752;23.576;2022-11-03T00:48:55;30.80;;;13.90;;
61356;SDS011;47227;46.752;23.576;2022-11-03T00:51:23;33.10;;;14.50;;
61356;SDS011;47227;46.752;23.576;2022-11-03T00:53:53;29.60;;;13.80;;
61356;SDS011;47227;46.752;23.576;2022-11-03T00:56:26;29.60;;;14.40;;
61356;SDS011;47227;46.752;23.576;2022-11-03T00:58:55;30.70;;;13.70;;
61356;SDS011;47227;46.752;23.576;2022-11-03T01:01:29;26.20;;;12.10;;
61356;SDS011;47227;46.752;23.576;2022-11-03T01:04:08;28.40;;;13.10;;
61356;SDS011;47227;46.752;23.576;2022-11-03T01:06:48;26.10;;;12.70;;
61356;SDS011;47227;46.752;23.576;2022-11-03T01:09:18;30.20;;;13.10;;
61356;SDS011;47227;46.752;23.576;2022-11-03T01:11:56;25.30;;;12.50;;
61356;SDS011;47227;46.752;23.576;2022-11-03T01:14:26;29.50;;;11.90;;
61356;SDS011;47227;46.752;23.576;2022-11-03T01:16:58;29.70;;;11.90;;
61356;SDS011;47227;46.752;23.576;2022-11-03T01:19:25;25.20;;;11.90;;
61356;SDS011;47227;46.752;23.576;2022-11-03T01:21:53;27.70;;;12.70;;
61356;SDS011;47227;46.752;23.576;2022-11-03T01:24:19;26.80;;;12.50;;
61356;SDS011;47227;46.752;23.576;2022-11-03T01:26:46;27.30;;;11.90;;
61356;SDS011;47227;46.752;23.576;2022-11-03T01:29:13;29.10;;;12.80;;
61356;SDS011;47227;46.752;23.576;2022-11-03T01:31:40;26.30;;;13.50;;
61356;SDS011;47227;46.752;23.576;2022-11-03T01:34:08;32.00;;;14.60;;
61356;SDS011;47227;46.752;23.576;2022-11-03T01:36:40;26.60;;;13.40;;
61356;SDS011;47227;46.752;23.576;2022-11-03T01:39:09;36.70;;;15.30;;
61356;SDS011;47227;46.752;23.576;2022-11-03T01:41:37;33.80;;;15.00;;
61356;SDS011;47227;46.752;23.576;2022-11-03T01:46:55;39.20;;;15.50;;
61356;SDS011;47227;46.752;23.576;2022-11-03T01:52:19;39.40;;;16.10;;
61356;SDS011;47227;46.752;23.576;2022-11-03T01:55:05;43.00;;;16.00;;
61356;SDS011;47227;46.752;23.576;2022-11-03T01:57:36;44.90;;;16.90;;
61356;SDS011;47227;46.752;23.576;2022-11-03T02:00:07;37.10;;;15.10;;
61356;SDS011;47227;46.752;23.576;2022-11-03T02:02:39;39.70;;;16.20;;
61356;SDS011;47227;46.752;23.576;2022-11-03T02:05:06;35.20;;;13.90;;
61356;SDS011;47227;46.752;23.576;2022-11-03T02:07:37;34.20;;;14.40;;
61356;SDS011;47227;46.752;23.576;2022-11-03T02:10:09;28.10;;;13.60;;
61356;SDS011;47227;46.752;23.576;2022-11-03T02:12:36;27.30;;;12.70;;
61356;SDS011;47227;46.752;23.576;2022-11-03T02:15:05;24.20;;;12.30;;
61356;SDS011;47227;46.752;23.576;2022-11-03T02:17:34;28.70;;;12.70;;
61356;SDS011;47227;46.752;23.576;2022-11-03T02:20:04;27.10;;;12.90;;
61356;SDS011;47227;46.752;23.576;2022-11-03T02:22:48;26.10;;;12.40;;
61356;SDS011;47227;46.752;23.576;2022-11-03T02:25:33;27.30;;;13.30;;
61356;SDS011;47227;46.752;23.576;2022-11-03T02:28:05;25.40;;;12.20;;
61356;SDS011;47227;46.752;23.576;2022-11-03T02:30:36;30.10;;;12.80;;
61356;SDS011;47227;46.752;23.576;2022-11-03T02:36:18;28.30;;;12.40;;
61356;SDS011;47227;46.752;23.576;2022-11-03T02:38:55;25.60;;;12.60;;
61356;SDS011;47227;46.752;23.576;2022-11-03T02:41:26;24.90;;;12.70;;
61356;SDS011;47227;46.752;23.576;2022-11-03T02:43:55;28.20;;;12.80;;
61356;SDS011;47227;46.752;23.576;2022-11-03T02:46:23;27.10;;;13.10;;
61356;SDS011;47227;46.752;23.576;2022-11-03T02:48:51;29.00;;;14.10;;
61356;SDS011;47227;46.752;23.576;2022-11-03T02:51:18;26.40;;;13.00;;
61356;SDS011;47227;46.752;23.576;2022-11-03T02:53:48;27.90;;;13.80;;
61356;SDS011;47227;46.752;23.576;2022-11-03T02:56:37;28.30;;;13.70;;
61356;SDS011;47227;46.752;23.576;2022-11-03T02:59:13;26.20;;;12.50;;
61356;SDS011;47227;46.752;23.576;2022-11-03T03:01:46;26.30;;;12.30;;
61356;SDS011;47227;46.752;23.576;2022-11-03T03:04:27;26.70;;;12.60;;
61356;SDS011;47227;46.752;23.576;2022-11-03T03:06:59;29.80;;;14.70;;
61356;SDS011;47227;46.752;23.576;2022-11-03T03:09:33;29.80;;;13.90;;
61356;SDS011;47227;46.752;23.576;2022-11-03T03:12:04;27.90;;;13.40;;
61356;SDS011;47227;46.752;23.576;2022-11-03T03:14:34;21.40;;;11.00;;
61356;SDS011;47227;46.752;23.576;2022-11-03T03:17:05;27.20;;;12.00;;
61356;SDS011;47227;46.752;23.576;2022-11-03T03:19:57;23.70;;;12.20;;
61356;SDS011;47227;46.752;23.576;2022-11-03T03:22:33;24.70;;;12.50;;
61356;SDS011;47227;46.752;23.576;2022-11-03T03:25:11;27.00;;;12.40;;
61356;SDS011;47227;46.752;23.576;2022-11-03T03:27:46;26.50;;;11.70;;
61356;SDS011;47227;46.752;23.576;2022-11-03T03:30:16;26.00;;;12.20;;
61356;SDS011;47227;46.752;23.576;2022-11-03T03:32:45;26.20;;;12.10;;
61356;SDS011;47227;46.752;23.576;2022-11-03T03:35:22;22.20;;;11.10;;
61356;SDS011;47227;46.752;23.576;2022-11-03T03:37:53;24.80;;;11.90;;
61356;SDS011;47227;46.752;23.576;2022-11-03T03:40:33;22.10;;;11.60;;
61356;SDS011;47227;46.752;23.576;2022-11-03T03:43:03;20.00;;;10.00;;
61356;SDS011;47227;46.752;23.576;2022-11-03T03:45:34;18.30;;;9.90;;
61356;SDS011;47227;46.752;23.576;2022-11-03T03:48:05;17.10;;;9.10;;
61356;SDS011;47227;46.752;23.576;2022-11-03T03:50:33;21.50;;;11.20;;
61356;SDS011;47227;46.752;23.576;2022-11-03T03:53:03;18.40;;;11.20;;
61356;SDS011;47227;46.752;23.576;2022-11-03T03:55:33;18.80;;;10.20;;
61356;SDS011;47227;46.752;23.576;2022-11-03T03:58:06;18.10;;;10.00;;
61356;SDS011;47227;46.752;23.576;2022-11-03T04:00:36;18.40;;;9.70;;
61356;SDS011;47227;46.752;23.576;2022-11-03T04:03:05;17.90;;;10.40;;
61356;SDS011;47227;46.752;23.576;2022-11-03T04:05:38;19.40;;;9.80;;
61356;SDS011;47227;46.752;23.576;2022-11-03T04:08:04;16.90;;;10.00;;
61356;SDS011;47227;46.752;23.576;2022-11-03T04:10:32;18.70;;;10.50;;
61356;SDS011;47227;46.752;23.576;2022-11-03T04:12:58;19.00;;;11.60;;
61356;SDS011;47227;46.752;23.576;2022-11-03T04:15:39;21.40;;;11.30;;
61356;SDS011;47227;46.752;23.576;2022-11-03T04:18:11;26.80;;;10.70;;
61356;SDS011;47227;46.752;23.576;2022-11-03T04:20:50;12.60;;;8.40;;
61356;SDS011;47227;46.752;23.576;2022-11-03T04:23:30;19.80;;;11.10;;
61356;SDS011;47227;46.752;23.576;2022-11-03T04:25:59;20.70;;;10.80;;
61356;SDS011;47227;46.752;23.576;2022-11-03T04:28:26;25.50;;;11.20;;
61356;SDS011;47227;46.752;23.576;2022-11-03T04:30:55;21.80;;;10.90;;
61356;SDS011;47227;46.752;23.576;2022-11-03T04:33:25;18.50;;;10.00;;
61356;SDS011;47227;46.752;23.576;2022-11-03T04:35:52;17.50;;;9.70;;
61356;SDS011;47227;46.752;23.576;2022-11-03T04:38:34;17.90;;;9.30;;
61356;SDS011;47227;46.752;23.576;2022-11-03T04:41:06;15.80;;;9.10;;
61356;SDS011;47227;46.752;23.576;2022-11-03T04:43:40;16.00;;;9.20;;
61356;SDS011;47227;46.752;23.576;2022-11-03T04:46:10;19.30;;;10.50;;
61356;SDS011;47227;46.752;23.576;2022-11-03T04:48:39;21.60;;;10.40;;
61356;SDS011;47227;46.752;23.576;2022-11-03T04:51:16;18.50;;;10.00;;
61356;SDS011;47227;46.752;23.576;2022-11-03T04:53:47;24.60;;;10.30;;
61356;SDS011;47227;46.752;23.576;2022-11-03T04:56:17;21.10;;;10.40;;
61356;SDS011;47227;46.752;23.576;2022-11-03T04:58:47;25.10;;;10.40;;
61356;SDS011;47227;46.752;23.576;2022-11-03T05:01:16;20.40;;;10.90;;
61356;SDS011;47227;46.752;23.576;2022-11-03T05:03:51;22.50;;;12.70;;
61356;SDS011;47227;46.752;23.576;2022-11-03T05:06:21;23.30;;;12.00;;
61356;SDS011;47227;46.752;23.576;2022-11-03T05:08:59;22.70;;;11.60;;
61356;SDS011;47227;46.752;23.576;2022-11-03T05:11:33;23.80;;;12.40;;
61356;SDS011;47227;46.752;23.576;2022-11-03T05:14:06;26.30;;;12.50;;
61356;SDS011;47227;46.752;23.576;2022-11-03T05:16:55;30.60;;;14.50;;
61356;SDS011;47227;46.752;23.576;2022-11-03T05:19:26;27.60;;;13.40;;
61356;SDS011;47227;46.752;23.576;2022-11-03T05:22:16;27.20;;;13.40;;
61356;SDS011;47227;46.752;23.576;2022-11-03T05:24:49;28.80;;;13.60;;
61356;SDS011;47227;46.752;23.576;2022-11-03T05:27:21;28.00;;;13.90;;
61356;SDS011;47227;46.752;23.576;2022-11-03T05:29:49;25.30;;;12.80;;
61356;SDS011;47227;46.752;23.576;2022-11-03T05:32:24;29.80;;;13.60;;
61356;SDS011;47227;46.752;23.576;2022-11-03T05:34:55;32.10;;;14.80;;
61356;SDS011;47227;46.752;23.576;2022-11-03T05:37:37;26.30;;;13.80;;
61356;SDS011;47227;46.752;23.576;2022-11-03T05:40:13;25.30;;;13.10;;
61356;SDS011;47227;46.752;23.576;2022-11-03T05:42:45;24.50;;;11.40;;
61356;SDS011;47227;46.752;23.576;2022-11-03T05:45:20;24.80;;;12.40;;
61356;SDS011;47227;46.752;23.576;2022-11-03T05:47:52;24.00;;;12.30;;
61356;SDS011;47227;46.752;23.576;2022-11-03T05:50:21;24.60;;;12.30;;
61356;SDS011;47227;46.752;23.576;2022-11-03T05:53:14;24.60;;;13.40;;
61356;SDS011;47227;46.752;23.576;2022-11-03T05:55:50;26.10;;;12.40;;
61356;SDS011;47227;46.752;23.576;2022-11-03T05:58:21;24.90;;;12.50;;
61356;SDS011;47227;46.752;23.576;2022-11-03T06:00:51;26.40;;;12.10;;
61356;SDS011;47227;46.752;23.576;2022-11-03T06:03:20;27.80;;;12.00;;
61356;SDS011;47227;46.752;23.576;2022-11-03T06:05:50;26.20;;;12.00;;
61356;SDS011;47227;46.752;23.576;2022-11-03T06:08:19;30.80;;;12.50;;
61356;SDS011;47227;46.752;23.576;2022-11-03T06:10:52;26.00;;;12.20;;
61356;SDS011;47227;46.752;23.576;2022-11-03T06:13:30;25.50;;;12.30;;
61356;SDS011;47227;46.752;23.576;2022-11-03T06:16:01;23.10;;;12.70;;
61356;SDS011;47227;46.752;23.576;2022-11-03T06:18:32;23.90;;;12.10;;
61356;SDS011;47227;46.752;23.576;2022-11-03T06:21:10;23.90;;;12.40;;
61356;SDS011;47227;46.752;23.576;2022-11-03T06:23:43;23.30;;;12.10;;
61356;SDS011;47227;46.752;23.576;2022-11-03T06:26:12;23.80;;;12.00;;
61356;SDS011;47227;46.752;23.576;2022-11-03T06:28:44;23.90;;;12.70;;
61356;SDS011;47227;46.752;23.576;2022-11-03T06:31:13;26.80;;;13.50;;
61356;SDS011;47227;46.752;23.576;2022-11-03T06:33:49;27.70;;;13.70;;
61356;SDS011;47227;46.752;23.576;2022-11-03T06:36:18;23.20;;;12.40;;
61356;SDS011;47227;46.752;23.576;2022-11-03T06:38:49;27.10;;;13.40;;
61356;SDS011;47227;46.752;23.576;2022-11-03T06:41:23;21.00;;;12.20;;
61356;SDS011;47227;46.752;23.576;2022-11-03T06:43:52;21.10;;;12.50;;
61356;SDS011;47227;46.752;23.576;2022-11-03T06:46:21;25.10;;;12.20;;
61356;SDS011;47227;46.752;23.576;2022-11-03T06:48:51;20.60;;;11.30;;
61356;SDS011;47227;46.752;23.576;2022-11-03T06:51:21;33.20;;;12.70;;
61356;SDS011;47227;46.752;23.576;2022-11-03T06:53:50;19.40;;;10.70;;
61356;SDS011;47227;46.752;23.576;2022-11-03T06:56:20;19.80;;;11.20;;
61356;SDS011;47227;46.752;23.576;2022-11-03T06:58:50;19.00;;;11.40;;
61356;SDS011;47227;46.752;23.576;2022-11-03T07:01:20;21.20;;;11.80;;
61356;SDS011;47227;46.752;23.576;2022-11-03T07:03:49;23.00;;;11.00;;
61356;SDS011;47227;46.752;23.576;2022-11-03T07:06:22;18.20;;;10.30;;
61356;SDS011;47227;46.752;23.576;2022-11-03T07:08:53;25.40;;;13.20;;
61356;SDS011;47227;46.752;23.576;2022-11-03T07:11:22;19.00;;;11.40;;
61356;SDS011;47227;46.752;23.576;2022-11-03T07:13:53;17.10;;;10.70;;
61356;SDS011;47227;46.752;23.576;2022-11-03T07:16:26;21.40;;;11.30;;
61356;SDS011;47227;46.752;23.576;2022-11-03T07:18:58;19.10;;;11.40;;
61356;SDS011;47227;46.752;23.576;2022-11-03T07:21:35;23.00;;;12.50;;
61356;SDS011;47227;46.752;23.576;2022-11-03T07:24:12;30.40;;;15.10;;
61356;SDS011;47227;46.752;23.576;2022-11-03T07:26:55;36.80;;;18.00;;
61356;SDS011;47227;46.752;23.576;2022-11-03T07:29:27;49.60;;;20.90;;
61356;SDS011;47227;46.752;23.576;2022-11-03T07:31:56;27.00;;;13.40;;
61356;SDS011;47227;46.752;23.576;2022-11-03T07:34:40;23.40;;;12.60;;
61356;SDS011;47227;46.752;23.576;2022-11-03T07:37:09;20.30;;;12.50;;
61356;SDS011;47227;46.752;23.576;2022-11-03T07:39:55;24.80;;;14.00;;
61356;SDS011;47227;46.752;23.576;2022-11-03T07:42:24;27.00;;;14.40;;
61356;SDS011;47227;46.752;23.576;2022-11-03T07:45:01;27.60;;;14.50;;
61356;SDS011;47227;46.752;23.576;2022-11-03T07:47:30;27.60;;;14.20;;
61356;SDS011;47227;46.752;23.576;2022-11-03T07:50:12;23.10;;;12.70;;
61356;SDS011;47227;46.752;23.576;2022-11-03T07:53:31;25.60;;;12.20;;
61356;SDS011;47227;46.752;23.576;2022-11-03T07:56:17;22.20;;;12.60;;
61356;SDS011;47227;46.752;23.576;2022-11-03T07:59:00;23.30;;;12.30;;
61356;SDS011;47227;46.752;23.576;2022-11-03T08:05:52;17.20;;;11.00;;
61356;SDS011;47227;46.752;23.576;2022-11-03T08:10:07;23.80;;;11.10;;
61356;SDS011;47227;46.752;23.576;2022-11-03T08:12:41;17.50;;;10.80;;
61356;SDS011;47227;46.752;23.576;2022-11-03T08:15:49;22.70;;;12.30;;
61356;SDS011;47227;46.752;23.576;2022-11-03T08:18:33;27.40;;;14.60;;
61356;SDS011;47227;46.752;23.576;2022-11-03T08:21:03;26.30;;;14.10;;
61356;SDS011;47227;46.752;23.576;2022-11-03T08:23:31;28.80;;;13.50;;
61356;SDS011;47227;46.752;23.576;2022-11-03T08:26:02;24.40;;;13.50;;
61356;SDS011;47227;46.752;23.576;2022-11-03T08:28:35;25.80;;;12.90;;
61356;SDS011;47227;46.752;23.576;2022-11-03T08:32:03;25.00;;;13.00;;
61356;SDS011;47227;46.752;23.576;2022-11-03T08:34:46;29.80;;;13.90;;
61356;SDS011;47227;46.752;23.576;2022-11-03T08:37:17;27.30;;;13.60;;
61356;SDS011;47227;46.752;23.576;2022-11-03T08:39:59;25.50;;;13.60;;
61356;SDS011;47227;46.752;23.576;2022-11-03T08:42:30;22.60;;;13.50;;
61356;SDS011;47227;46.752;23.576;2022-11-03T08:45:04;21.40;;;14.00;;
61356;SDS011;47227;46.752;23.576;2022-11-03T08:47:41;22.70;;;13.60;;
61356;SDS011;47227;46.752;23.576;2022-11-03T08:50:14;26.00;;;13.50;;
61356;SDS011;47227;46.752;23.576;2022-11-03T08:52:41;28.20;;;13.80;;
61356;SDS011;47227;46.752;23.576;2022-11-03T08:56:29;22.70;;;13.30;;
61356;SDS011;47227;46.752;23.576;2022-11-03T08:59:39;21.60;;;13.00;;
61356;SDS011;47227;46.752;23.576;2022-11-03T09:02:18;30.70;;;12.90;;
61356;SDS011;47227;46.752;23.576;2022-11-03T09:05:29;24.60;;;11.70;;
61356;SDS011;47227;46.752;23.576;2022-11-03T09:08:01;23.60;;;12.00;;
61356;SDS011;47227;46.752;23.576;2022-11-03T09:13:59;20.40;;;12.20;;
61356;SDS011;47227;46.752;23.576;2022-11-03T09:16:34;23.40;;;12.00;;
61356;SDS011;47227;46.752;23.576;2022-11-03T09:19:13;25.70;;;12.40;;
61356;SDS011;47227;46.752;23.576;2022-11-03T09:22:21;24.70;;;11.70;;
61356;SDS011;47227;46.752;23.576;2022-11-03T09:25:28;24.20;;;12.30;;
61356;SDS011;47227;46.752;23.576;2022-11-03T09:29:13;25.20;;;12.60;;
61356;SDS011;47227;46.752;23.576;2022-11-03T09:32:08;26.80;;;13.50;;
61356;SDS011;47227;46.752;23.576;2022-11-03T09:34:51;26.20;;;14.20;;
61356;SDS011;47227;46.752;23.576;2022-11-03T09:37:25;31.60;;;14.60;;
61356;SDS011;47227;46.752;23.576;2022-11-03T09:40:04;29.60;;;14.50;;
61356;SDS011;47227;46.752;23.576;2022-11-03T09:42:39;28.70;;;15.20;;
61356;SDS011;47227;46.752;23.576;2022-11-03T09:45:55;28.30;;;14.50;;
61356;SDS011;47227;46.752;23.576;2022-11-03T09:49:39;30.20;;;14.90;;
61356;SDS011;47227;46.752;23.576;2022-11-03T09:52:28;29.90;;;15.50;;
61356;SDS011;47227;46.752;23.576;2022-11-03T09:56:14;36.30;;;14.70;;
61356;SDS011;47227;46.752;23.576;2022-11-03T10:02:20;29.70;;;15.30;;
61356;SDS011;47227;46.752;23.576;2022-11-03T10:05:05;30.10;;;15.40;;
61356;SDS011;47227;46.752;23.576;2022-11-03T10:07:51;28.50;;;14.50;;
61356;SDS011;47227;46.752;23.576;2022-11-03T10:10:28;28.20;;;15.50;;
61356;SDS011;47227;46.752;23.576;2022-11-03T10:13:00;31.90;;;15.80;;
61356;SDS011;47227;46.752;23.576;2022-11-03T10:15:27;29.20;;;15.90;;
61356;SDS011;47227;46.752;23.576;2022-11-03T10:17:54;34.10;;;16.50;;
61356;SDS011;47227;46.752;23.576;2022-11-03T10:20:22;34.70;;;15.60;;
61356;SDS011;47227;46.752;23.576;2022-11-03T10:22:50;29.30;;;15.70;;
61356;SDS011;47227;46.752;23.576;2022-11-03T10:25:26;30.40;;;17.10;;
61356;SDS011;47227;46.752;23.576;2022-11-03T10:28:16;50.40;;;25.70;;
61356;SDS011;47227;46.752;23.576;2022-11-03T10:30:53;43.30;;;23.70;;
61356;SDS011;47227;46.752;23.576;2022-11-03T10:34:26;47.90;;;23.80;;
61356;SDS011;47227;46.752;23.576;2022-11-03T10:37:31;44.70;;;24.50;;
61356;SDS011;47227;46.752;23.576;2022-11-03T10:39:58;45.70;;;23.30;;
61356;SDS011;47227;46.752;23.576;2022-11-03T10:42:26;48.40;;;24.80;;
61356;SDS011;47227;46.752;23.576;2022-11-03T10:50:28;41.80;;;19.00;;
61356;SDS011;47227;46.752;23.576;2022-11-03T10:52:58;40.10;;;20.80;;
61356;SDS011;47227;46.752;23.576;2022-11-03T10:55:26;33.90;;;15.30;;
61356;SDS011;47227;46.752;23.576;2022-11-03T10:57:57;35.70;;;18.30;;
61356;SDS011;47227;46.752;23.576;2022-11-03T11:01:24;34.60;;;15.90;;
61356;SDS011;47227;46.752;23.576;2022-11-03T11:03:52;33.30;;;16.60;;
61356;SDS011;47227;46.752;23.576;2022-11-03T11:06:22;34.80;;;17.00;;
61356;SDS011;47227;46.752;23.576;2022-11-03T11:08:58;35.10;;;15.80;;
61356;SDS011;47227;46.752;23.576;2022-11-03T11:11:26;30.30;;;16.50;;
61356;SDS011;47227;46.752;23.576;2022-11-03T11:16:55;35.30;;;17.20;;
61356;SDS011;47227;46.752;23.576;2022-11-03T11:19:24;28.80;;;15.80;;
61356;SDS011;47227;46.752;23.576;2022-11-03T11:21:57;29.80;;;15.40;;
61356;SDS011;47227;46.752;23.576;2022-11-03T11:24:54;37.90;;;18.70;;
61356;SDS011;47227;46.752;23.576;2022-11-03T11:33:25;37.50;;;16.60;;
61356;SDS011;47227;46.752;23.576;2022-11-03T11:44:46;33.50;;;17.20;;
61356;SDS011;47227;46.752;23.576;2022-11-03T11:47:27;39.80;;;17.20;;
61356;SDS011;47227;46.752;23.576;2022-11-03T11:52:56;44.40;;;17.20;;
61356;SDS011;47227;46.752;23.576;2022-11-03T11:55:58;26.40;;;16.20;;
61356;SDS011;47227;46.752;23.576;2022-11-03T11:58:40;39.80;;;16.20;;
61356;SDS011;47227;46.752;23.576;2022-11-03T12:01:20;37.40;;;16.30;;
61356;SDS011;47227;46.752;23.576;2022-11-03T12:03:53;37.70;;;17.40;;
61356;SDS011;47227;46.752;23.576;2022-11-03T12:06:33;35.90;;;16.80;;
61356;SDS011;47227;46.752;23.576;2022-11-03T12:09:16;33.20;;;15.70;;
61356;SDS011;47227;46.752;23.576;2022-11-03T12:11:48;40.00;;;17.20;;
61356;SDS011;47227;46.752;23.576;2022-11-03T12:14:23;35.00;;;17.00;;
61356;SDS011;47227;46.752;23.576;2022-11-03T12:19:57;31.90;;;14.90;;
61356;SDS011;47227;46.752;23.576;2022-11-03T12:25:31;36.00;;;15.10;;
61356;SDS011;47227;46.752;23.576;2022-11-03T12:28:00;34.40;;;16.30;;
61356;SDS011;47227;46.752;23.576;2022-11-03T12:30:29;36.00;;;14.80;;
61356;SDS011;47227;46.752;23.576;2022-11-03T12:33:01;36.90;;;16.40;;
61356;SDS011;47227;46.752;23.576;2022-11-03T12:35:34;31.20;;;15.50;;
61356;SDS011;47227;46.752;23.576;2022-11-03T12:38:06;34.10;;;16.30;;
61356;SDS011;47227;46.752;23.576;2022-11-03T12:40:33;34.40;;;16.30;;
61356;SDS011;47227;46.752;23.576;2022-11-03T12:43:05;37.50;;;16.50;;
61356;SDS011;47227;46.752;23.576;2022-11-03T12:45:39;34.40;;;17.50;;
61356;SDS011;47227;46.752;23.576;2022-11-03T12:48:09;39.20;;;16.80;;
61356;SDS011;47227;46.752;23.576;2022-11-03T12:50:39;31.50;;;17.60;;
61356;SDS011;47227;46.752;23.576;2022-11-03T12:53:07;52.10;;;18.50;;
61356;SDS011;47227;46.752;23.576;2022-11-03T12:55:34;36.30;;;16.00;;
61356;SDS011;47227;46.752;23.576;2022-11-03T12:58:05;34.00;;;16.80;;
61356;SDS011;47227;46.752;23.576;2022-11-03T13:00:33;35.70;;;17.70;;
61356;SDS011;47227;46.752;23.576;2022-11-03T13:02:59;40.10;;;16.50;;
61356;SDS011;47227;46.752;23.576;2022-11-03T13:05:26;34.80;;;17.20;;
61356;SDS011;47227;46.752;23.576;2022-11-03T13:07:53;37.80;;;18.00;;
61356;SDS011;47227;46.752;23.576;2022-11-03T13:10:20;37.50;;;18.00;;
61356;SDS011;47227;46.752;23.576;2022-11-03T13:12:49;34.40;;;16.90;;
61356;SDS011;47227;46.752;23.576;2022-11-03T13:15:16;38.20;;;17.20;;
61356;SDS011;47227;46.752;23.576;2022-11-03T13:17:43;32.90;;;15.60;;
61356;SDS011;47227;46.752;23.576;2022-11-03T13:20:31;40.20;;;16.40;;
61356;SDS011;47227;46.752;23.576;2022-11-03T13:22:58;39.00;;;16.30;;
61356;SDS011;47227;46.752;23.576;2022-11-03T13:25:25;39.00;;;15.30;;
61356;SDS011;47227;46.752;23.576;2022-11-03T13:27:53;30.10;;;15.10;;
61356;SDS011;47227;46.752;23.576;2022-11-03T13:30:21;34.90;;;15.90;;
61356;SDS011;47227;46.752;23.576;2022-11-03T13:32:48;38.40;;;17.00;;
61356;SDS011;47227;46.752;23.576;2022-11-03T13:35:15;33.90;;;16.60;;
61356;SDS011;47227;46.752;23.576;2022-11-03T13:37:43;41.70;;;16.30;;
61356;SDS011;47227;46.752;23.576;2022-11-03T13:40:10;37.30;;;15.50;;
61356;SDS011;47227;46.752;23.576;2022-11-03T13:42:57;31.40;;;13.60;;
61356;SDS011;47227;46.752;23.576;2022-11-03T13:45:34;29.00;;;14.10;;
61356;SDS011;47227;46.752;23.576;2022-11-03T13:48:09;33.40;;;15.10;;
61356;SDS011;47227;46.752;23.576;2022-11-03T13:50:56;30.00;;;15.00;;
61356;SDS011;47227;46.752;23.576;2022-11-03T13:53:25;33.20;;;14.90;;
61356;SDS011;47227;46.752;23.576;2022-11-03T13:56:12;37.50;;;17.40;;
61356;SDS011;47227;46.752;23.576;2022-11-03T13:58:47;40.60;;;16.20;;
61356;SDS011;47227;46.752;23.576;2022-11-03T14:01:44;32.40;;;16.10;;
61356;SDS011;47227;46.752;23.576;2022-11-03T14:04:35;35.50;;;16.20;;
61356;SDS011;47227;46.752;23.576;2022-11-03T14:07:05;34.90;;;15.90;;
61356;SDS011;47227;46.752;23.576;2022-11-03T14:09:33;31.30;;;16.40;;
61356;SDS011;47227;46.752;23.576;2022-11-03T14:12:00;38.40;;;18.60;;
61356;SDS011;47227;46.752;23.576;2022-11-03T14:14:44;41.50;;;18.50;;
61356;SDS011;47227;46.752;23.576;2022-11-03T14:17:11;30.70;;;16.10;;
61356;SDS011;47227;46.752;23.576;2022-11-03T14:19:37;34.20;;;17.10;;
61356;SDS011;47227;46.752;23.576;2022-11-03T14:22:11;38.60;;;16.70;;
61356;SDS011;47227;46.752;23.576;2022-11-03T14:24:38;33.30;;;15.40;;
61356;SDS011;47227;46.752;23.576;2022-11-03T14:27:05;40.50;;;18.50;;
61356;SDS011;47227;46.752;23.576;2022-11-03T14:29:31;34.50;;;17.30;;
61356;SDS011;47227;46.752;23.576;2022-11-03T14:31:58;37.60;;;16.60;;
61356;SDS011;47227;46.752;23.576;2022-11-03T14:34:24;32.80;;;16.20;;
61356;SDS011;47227;46.752;23.576;2022-11-03T14:36:51;35.20;;;16.30;;
61356;SDS011;47227;46.752;23.576;2022-11-03T14:39:18;35.60;;;16.30;;
61356;SDS011;47227;46.752;23.576;2022-11-03T14:41:44;34.20;;;16.00;;
61356;SDS011;47227;46.752;23.576;2022-11-03T14:44:25;28.10;;;14.70;;
61356;SDS011;47227;46.752;23.576;2022-11-03T14:46:52;32.30;;;15.10;;
61356;SDS011;47227;46.752;23.576;2022-11-03T14:49:20;31.40;;;15.10;;
61356;SDS011;47227;46.752;23.576;2022-11-03T14:51:47;27.80;;;14.30;;
61356;SDS011;47227;46.752;23.576;2022-11-03T14:54:13;26.00;;;14.00;;
61356;SDS011;47227;46.752;23.576;2022-11-03T14:56:40;36.90;;;15.70;;
61356;SDS011;47227;46.752;23.576;2022-11-03T14:59:07;30.50;;;15.10;;
61356;SDS011;47227;46.752;23.576;2022-11-03T15:01:34;28.40;;;14.80;;
61356;SDS011;47227;46.752;23.576;2022-11-03T15:04:03;33.80;;;14.70;;
61356;SDS011;47227;46.752;23.576;2022-11-03T15:06:31;29.90;;;14.70;;
61356;SDS011;47227;46.752;23.576;2022-11-03T15:08:58;26.60;;;13.10;;
61356;SDS011;47227;46.752;23.576;2022-11-03T15:11:25;27.10;;;13.00;;
61356;SDS011;47227;46.752;23.576;2022-11-03T15:13:53;34.40;;;14.20;;
61356;SDS011;47227;46.752;23.576;2022-11-03T15:16:21;29.90;;;14.50;;
61356;SDS011;47227;46.752;23.576;2022-11-03T15:18:48;31.20;;;14.40;;
61356;SDS011;47227;46.752;23.576;2022-11-03T15:21:19;30.50;;;14.30;;
61356;SDS011;47227;46.752;23.576;2022-11-03T15:23:46;27.90;;;14.70;;
61356;SDS011;47227;46.752;23.576;2022-11-03T15:26:32;28.20;;;13.60;;
61356;SDS011;47227;46.752;23.576;2022-11-03T15:28:59;28.30;;;13.30;;
61356;SDS011;47227;46.752;23.576;2022-11-03T15:31:30;32.30;;;13.90;;
61356;SDS011;47227;46.752;23.576;2022-11-03T15:33:57;33.60;;;13.10;;
61356;SDS011;47227;46.752;23.576;2022-11-03T15:36:27;34.30;;;16.00;;
61356;SDS011;47227;46.752;23.576;2022-11-03T15:38:54;35.60;;;16.00;;
61356;SDS011;47227;46.752;23.576;2022-11-03T15:41:25;31.90;;;14.50;;
61356;SDS011;47227;46.752;23.576;2022-11-03T15:43:56;28.50;;;14.30;;
61356;SDS011;47227;46.752;23.576;2022-11-03T15:46:34;27.60;;;14.00;;